createdAt,value
2022-08-14T00:01:03.962Z,88.51
2022-08-14T00:03:37.079Z,90.19
2022-08-14T00:06:13.977Z,92.62
2022-08-14T00:08:51.145Z,92.45
2022-08-14T00:11:17.893Z,93.11
2022-08-14T00:13:44.495Z,93.14
2022-08-14T00:16:41.611Z,95.96
2022-08-14T00:19:19.068Z,96.15
2022-08-14T00:21:52.451Z,98.19
2022-08-14T00:24:23.198Z,100.00
2022-08-14T00:27:02.357Z,100.00
2022-08-14T00:29:40.424Z,100.00
2022-08-14T00:32:55.728Z,100.00
2022-08-14T00:34:56.470Z,100.00
2022-08-14T00:37:23.459Z,98.88
2022-08-14T00:39:51.194Z,100.00
2022-08-14T00:42:55.349Z,98.15
2022-08-14T00:45:13.803Z,97.02
2022-08-14T00:47:43.215Z,96.64
2022-08-14T00:50:17.827Z,97.36
2022-08-14T00:52:52.530Z,96.28
2022-08-14T00:55:20.828Z,95.61
2022-08-14T00:58:10.905Z,94.83
2022-08-14T01:00:47.196Z,94.38
2022-08-14T01:03:20.071Z,94.00
2022-08-14T01:05:52.261Z,94.20
2022-08-14T01:08:51.959Z,96.20
2022-08-14T01:11:19.109Z,98.03
2022-08-14T01:13:55.780Z,98.80
2022-08-14T01:16:30.758Z,99.48
2022-08-14T01:19:16.962Z,98.95
2022-08-14T01:21:53.516Z,98.68
2022-08-14T01:24:30.259Z,99.19
2022-08-14T01:27:00.148Z,98.84
2022-08-14T01:29:58.496Z,98.98
2022-08-14T01:32:23.179Z,98.58
2022-08-14T01:35:20.041Z,98.09
2022-08-14T01:37:54.743Z,98.19
2022-08-14T01:40:36.817Z,97.24
2022-08-14T01:43:14.645Z,96.48
2022-08-14T01:45:42.578Z,97.89
2022-08-14T01:48:16.218Z,97.67
2022-08-14T01:50:47.592Z,97.01
2022-08-14T01:53:14.371Z,96.82
2022-08-14T01:55:41.374Z,97.35
2022-08-14T01:58:19.567Z,96.59
2022-08-14T02:00:55.165Z,96.20
2022-08-14T02:03:32.032Z,96.97
2022-08-14T02:06:03.939Z,97.44
2022-08-14T02:08:53.255Z,96.01
2022-08-14T02:11:24.061Z,95.84
2022-08-14T02:14:07.071Z,95.42
2022-08-14T02:16:41.918Z,95.08
2022-08-14T02:19:15.636Z,94.74
2022-08-14T02:21:50.263Z,94.31
2022-08-14T02:24:40.162Z,94.32
2022-08-14T02:28:23.429Z,93.96
2022-08-14T02:30:00.892Z,93.83
2022-08-14T02:32:36.792Z,95.46
2022-08-14T02:35:13.797Z,96.48
2022-08-14T02:37:47.974Z,96.56
2022-08-14T02:40:16.419Z,96.85
2022-08-14T02:42:54.599Z,97.25
2022-08-14T02:45:33.243Z,95.88
2022-08-14T02:48:10.169Z,95.35
2022-08-14T02:50:40.044Z,94.81
2022-08-14T02:53:07.552Z,94.22
2022-08-14T02:55:35.387Z,94.77
2022-08-14T02:58:05.883Z,94.08
2022-08-14T03:00:35.311Z,95.60
2022-08-14T03:03:07.841Z,96.24
2022-08-14T03:05:37.204Z,98.14
2022-08-14T03:08:11.976Z,99.37
2022-08-14T03:10:49.019Z,98.72
2022-08-14T03:13:19.466Z,97.35
2022-08-14T03:15:56.067Z,96.02
2022-08-14T03:18:31.131Z,97.85
2022-08-14T03:21:05.912Z,96.22
2022-08-14T03:23:37.743Z,97.54
2022-08-14T03:26:07.189Z,96.45
2022-08-14T03:28:34.673Z,97.54
2022-08-14T03:31:08.357Z,95.38
2022-08-14T03:33:41.015Z,94.84
2022-08-14T03:37:28.629Z,94.19
2022-08-14T03:39:12.572Z,93.71
2022-08-14T03:41:47.658Z,93.69
2022-08-14T03:45:19.529Z,93.38
2022-08-14T03:47:03.088Z,93.13
2022-08-14T03:49:30.278Z,92.75
2022-08-14T03:52:02.925Z,92.13
2022-08-14T03:54:31.067Z,91.74
2022-08-14T03:57:03.018Z,91.37
2022-08-14T03:59:34.140Z,91.42
2022-08-14T04:02:04.741Z,91.61
2022-08-14T04:04:50.689Z,91.01
2022-08-14T04:07:17.479Z,90.50
2022-08-14T04:09:46.236Z,91.03
2022-08-14T04:12:13.302Z,90.66
2022-08-14T04:14:40.248Z,91.36
2022-08-14T04:17:10.077Z,91.09
2022-08-14T04:19:37.648Z,90.97
2022-08-14T04:22:04.478Z,90.95
2022-08-14T04:24:38.249Z,91.36
2022-08-14T04:27:10.390Z,91.51
2022-08-14T04:29:42.513Z,91.54
2022-08-14T04:32:59.157Z,91.27
2022-08-14T04:34:57.512Z,91.70
2022-08-14T04:37:43.633Z,91.08
2022-08-14T04:40:32.592Z,91.54
2022-08-14T04:43:20.872Z,91.40
2022-08-14T04:45:51.193Z,92.64
2022-08-14T04:48:39.086Z,93.36
2022-08-14T04:51:15.101Z,93.23
2022-08-14T04:53:44.751Z,93.10
2022-08-14T04:56:30.863Z,93.43
2022-08-14T04:59:05.048Z,92.86
2022-08-14T05:01:49.774Z,93.77
2022-08-14T05:04:21.019Z,93.05
2022-08-14T05:06:49.570Z,93.10
2022-08-14T05:09:20.441Z,93.00
2022-08-14T05:11:51.615Z,93.03
2022-08-14T05:14:46.676Z,92.40
2022-08-14T05:17:06.879Z,93.33
2022-08-14T05:19:33.857Z,94.55
2022-08-14T05:22:16.561Z,93.25
2022-08-14T05:24:44.709Z,92.40
2022-08-14T05:27:11.770Z,94.39
2022-08-14T05:29:38.319Z,92.62
2022-08-14T05:32:07.925Z,92.58
2022-08-14T05:34:34.566Z,92.46
2022-08-14T05:37:03.233Z,91.95
2022-08-14T05:39:31.434Z,91.86
2022-08-14T05:42:00.663Z,92.07
2022-08-14T05:44:30.164Z,91.90
2022-08-14T05:46:58.344Z,91.91
2022-08-14T05:49:25.982Z,92.32
2022-08-14T05:51:59.327Z,91.90
2022-08-14T05:54:28.278Z,91.78
2022-08-14T05:57:03.521Z,92.15
2022-08-14T05:59:38.741Z,91.94
2022-08-14T06:02:07.174Z,92.35
2022-08-14T06:04:33.777Z,92.39
2022-08-14T06:07:00.306Z,92.83
2022-08-14T06:09:28.521Z,93.03
2022-08-14T06:12:02.195Z,93.68
2022-08-14T06:14:29.805Z,92.79
2022-08-14T06:16:56.643Z,92.34
2022-08-14T06:19:23.625Z,92.76
2022-08-14T06:21:58.108Z,92.44
2022-08-14T06:24:26.090Z,92.65
2022-08-14T06:26:56.697Z,93.14
2022-08-14T06:29:32.457Z,92.73
2022-08-14T06:32:38.356Z,92.29
2022-08-14T06:35:09.970Z,92.40
2022-08-14T06:37:56.389Z,92.33
2022-08-14T06:40:26.897Z,92.77
2022-08-14T06:43:00.524Z,93.49
2022-08-14T06:45:31.303Z,93.54
2022-08-14T06:47:58.766Z,94.33
2022-08-14T06:50:28.592Z,93.99
2022-08-14T06:52:57.496Z,93.80
2022-08-14T06:55:28.210Z,93.09
2022-08-14T06:57:57.628Z,93.17
2022-08-14T07:00:31.066Z,92.72
2022-08-14T07:03:17.888Z,92.84
2022-08-14T07:05:57.916Z,93.70
2022-08-14T07:08:32.105Z,92.77
2022-08-14T07:11:04.042Z,92.96
2022-08-14T07:13:31.553Z,91.53
2022-08-14T07:16:00.688Z,91.47
2022-08-14T07:18:34.416Z,92.02
2022-08-14T07:21:02.702Z,91.09
2022-08-14T07:23:31.180Z,91.47
2022-08-14T07:25:59.830Z,90.98
2022-08-14T07:28:35.757Z,91.22
2022-08-14T07:31:06.450Z,91.59
2022-08-14T07:33:41.892Z,91.57
2022-08-14T07:36:27.359Z,91.86
2022-08-14T07:39:00.660Z,91.64
2022-08-14T07:41:33.472Z,91.72
2022-08-14T07:44:22.475Z,90.97
2022-08-14T07:46:49.656Z,90.54
2022-08-14T07:49:18.224Z,90.77
2022-08-14T07:51:49.239Z,89.96
2022-08-14T07:54:16.641Z,89.91
2022-08-14T07:56:53.937Z,89.31
2022-08-14T07:59:42.664Z,90.54
2022-08-14T08:02:19.116Z,89.27
2022-08-14T08:04:49.610Z,89.50
2022-08-14T08:07:16.494Z,88.22
2022-08-14T08:09:53.064Z,88.26
2022-08-14T08:12:29.580Z,87.94
2022-08-14T08:15:03.134Z,87.02
2022-08-14T08:17:38.676Z,86.00
2022-08-14T08:20:20.126Z,84.69
2022-08-14T08:22:55.943Z,84.18
2022-08-14T08:25:25.080Z,83.92
2022-08-14T08:28:01.369Z,85.16
2022-08-14T08:30:48.529Z,84.21
2022-08-14T08:33:17.613Z,84.25
2022-08-14T08:35:50.855Z,83.91
2022-08-14T08:39:14.771Z,85.24
2022-08-14T08:41:09.641Z,86.56
2022-08-14T08:43:38.638Z,84.00
2022-08-14T08:46:21.058Z,81.60
2022-08-14T08:51:34.561Z,81.66
2022-08-14T08:54:18.514Z,82.01
2022-08-14T08:56:52.147Z,82.31
2022-08-14T08:59:22.609Z,82.78
2022-08-14T09:02:05.699Z,81.35
2022-08-14T09:04:53.455Z,81.75
2022-08-14T09:07:27.914Z,82.43
2022-08-14T09:09:58.946Z,83.90
2022-08-14T09:12:33.135Z,85.86
2022-08-14T09:15:12.340Z,85.21
2022-08-14T09:17:41.370Z,83.61
2022-08-14T09:20:11.846Z,85.69
2022-08-14T09:22:47.694Z,86.01
2022-08-14T09:25:19.619Z,88.74
2022-08-14T09:27:47.154Z,91.89
2022-08-14T09:30:32.318Z,91.75
2022-08-14T09:33:08.897Z,91.84
2022-08-14T09:35:58.339Z,90.96
2022-08-14T09:38:33.627Z,90.36
2022-08-14T09:41:13.514Z,90.76
2022-08-14T09:44:09.242Z,91.20
2022-08-14T09:46:36.047Z,89.78
2022-08-14T09:49:07.620Z,90.50
2022-08-14T09:51:58.318Z,90.02
2022-08-14T09:54:37.488Z,88.21
2022-08-14T09:57:06.973Z,88.49
2022-08-14T09:59:47.593Z,90.09
2022-08-14T10:02:23.245Z,91.08
2022-08-14T10:05:33.692Z,92.87
2022-08-14T10:08:01.979Z,93.17
2022-08-14T10:10:39.936Z,92.17
2022-08-14T10:13:21.980Z,92.03
2022-08-14T10:15:50.559Z,93.05
2022-08-14T10:18:20.327Z,93.75
2022-08-14T10:20:55.411Z,94.40
2022-08-14T10:23:24.491Z,95.27
2022-08-14T10:25:59.073Z,94.82
2022-08-14T10:28:39.228Z,94.57
2022-08-14T10:31:29.743Z,94.90
2022-08-14T10:34:12.731Z,95.87
2022-08-14T10:36:44.991Z,97.41
2022-08-14T10:39:23.695Z,98.41
2022-08-14T10:42:04.578Z,96.42
2022-08-14T10:44:47.582Z,95.15
2022-08-14T10:47:41.686Z,93.72
2022-08-14T10:50:01.564Z,93.07
2022-08-14T10:52:43.572Z,91.86
2022-08-14T10:55:19.405Z,89.29
2022-08-14T10:57:52.486Z,89.29
2022-08-14T11:00:30.228Z,90.41
2022-08-14T11:03:19.687Z,90.50
2022-08-14T11:05:55.004Z,89.66
2022-08-14T11:08:33.774Z,89.56
2022-08-14T11:11:05.459Z,89.14
2022-08-14T11:13:32.250Z,88.59
2022-08-14T11:16:01.048Z,89.26
2022-08-14T11:18:35.673Z,90.94
2022-08-14T11:21:08.345Z,92.34
2022-08-14T11:23:43.970Z,94.37
2022-08-14T11:26:13.514Z,97.29
2022-08-14T11:28:47.778Z,100.00
2022-08-14T11:31:19.994Z,100.00
2022-08-14T11:33:58.427Z,100.00
2022-08-14T11:37:02.047Z,100.00
2022-08-14T11:39:33.882Z,100.00
2022-08-14T11:42:57.730Z,100.00
2022-08-14T11:45:00.719Z,100.00
2022-08-14T11:47:35.521Z,100.00
2022-08-14T11:50:38.388Z,100.00
2022-08-14T11:53:07.101Z,100.00
2022-08-14T11:55:39.344Z,100.00
2022-08-14T11:58:10.455Z,100.00
2022-08-14T12:00:53.694Z,100.00
2022-08-14T12:03:37.895Z,100.00
2022-08-14T12:06:28.071Z,100.00
2022-08-14T12:09:00.144Z,100.00
2022-08-14T12:11:38.361Z,100.00
2022-08-14T12:14:29.145Z,100.00
2022-08-14T12:17:02.005Z,100.00
2022-08-14T12:19:34.974Z,100.00
2022-08-14T12:22:02.522Z,100.00
2022-08-14T12:24:35.892Z,100.00
2022-08-14T12:27:03.730Z,100.00
2022-08-14T12:29:31.938Z,100.00
2022-08-14T12:32:00.713Z,100.00
2022-08-14T12:34:33.331Z,100.00
2022-08-14T12:37:08.788Z,100.00
2022-08-14T12:39:40.051Z,100.00
2022-08-14T12:42:07.913Z,100.00
2022-08-14T12:44:39.701Z,98.19
2022-08-14T12:47:17.073Z,97.94
2022-08-14T12:49:57.559Z,96.16
2022-08-14T12:52:58.718Z,95.85
2022-08-14T12:55:32.597Z,98.11
2022-08-14T12:58:35.215Z,98.85
2022-08-14T13:01:16.766Z,98.68
2022-08-14T13:03:48.142Z,98.03
2022-08-14T13:06:19.362Z,97.61
2022-08-14T13:08:53.432Z,96.76
2022-08-14T13:11:24.025Z,96.07
2022-08-14T13:13:58.017Z,94.49
2022-08-14T13:16:38.268Z,94.25
2022-08-14T13:19:14.015Z,95.32
2022-08-14T13:22:04.726Z,94.22
2022-08-14T13:24:29.612Z,94.21
2022-08-14T13:27:04.312Z,95.53
2022-08-14T13:29:40.383Z,95.22
2022-08-14T13:32:09.636Z,94.73
2022-08-14T13:34:38.291Z,94.93
2022-08-14T13:37:07.419Z,94.38
2022-08-14T13:39:36.273Z,93.96
2022-08-14T13:42:08.524Z,93.91
2022-08-14T13:44:42.520Z,94.37
2022-08-14T13:47:10.299Z,93.60
2022-08-14T13:49:40.363Z,92.86
2022-08-14T13:52:52.867Z,92.41
2022-08-14T13:55:14.614Z,91.76
2022-08-14T13:57:49.218Z,92.05
2022-08-14T14:00:21.854Z,92.01
2022-08-14T14:03:00.628Z,93.01
2022-08-14T14:05:53.151Z,93.66
2022-08-14T14:08:18.437Z,94.80
2022-08-14T14:10:47.185Z,95.34
2022-08-14T14:13:18.492Z,96.42
2022-08-14T14:15:57.739Z,98.77
2022-08-14T14:18:34.335Z,99.01
2022-08-14T14:21:03.547Z,100.00
2022-08-14T14:23:32.538Z,99.25
2022-08-14T14:26:00.235Z,96.52
2022-08-14T14:28:31.757Z,92.79
2022-08-14T14:31:06.178Z,93.33
2022-08-14T14:33:51.080Z,93.25
2022-08-14T14:36:28.050Z,93.61
2022-08-14T14:39:02.855Z,91.58
2022-08-14T14:41:38.066Z,92.39
2022-08-14T14:44:16.054Z,90.43
2022-08-14T14:46:50.693Z,91.02
2022-08-14T14:49:22.067Z,91.48
2022-08-14T14:51:53.131Z,92.37
2022-08-14T14:54:30.247Z,93.46
2022-08-14T14:57:02.147Z,94.30
2022-08-14T14:59:35.942Z,94.96
2022-08-14T15:02:08.319Z,96.50
2022-08-14T15:04:38.033Z,97.80
2022-08-14T15:07:06.475Z,99.48
2022-08-14T15:09:34.541Z,99.22
2022-08-14T15:12:02.658Z,100.00
2022-08-14T15:14:54.584Z,98.60
2022-08-14T15:17:24.404Z,98.54
2022-08-14T15:19:56.687Z,99.66
2022-08-14T15:22:29.416Z,99.41
2022-08-14T15:24:57.192Z,98.24
2022-08-14T15:27:26.624Z,97.73
2022-08-14T15:29:55.022Z,99.18
2022-08-14T15:32:23.738Z,98.69
2022-08-14T15:34:52.787Z,98.07
2022-08-14T15:37:23.233Z,98.13
2022-08-14T15:39:52.625Z,98.93
2022-08-14T15:42:22.494Z,98.22
2022-08-14T15:44:58.047Z,98.23
2022-08-14T15:47:30.010Z,97.61
2022-08-14T15:50:01.734Z,98.88
2022-08-14T15:52:37.162Z,97.37
2022-08-14T15:55:07.626Z,97.12
2022-08-14T15:57:35.032Z,97.12
2022-08-14T16:00:40.525Z,98.06
2022-08-14T16:03:11.599Z,98.55
2022-08-14T16:05:38.905Z,98.58
2022-08-14T16:08:28.831Z,98.18
2022-08-14T16:10:55.087Z,97.70
2022-08-14T16:13:42.185Z,98.18
2022-08-14T16:16:34.802Z,97.40
2022-08-14T16:19:09.554Z,97.54
2022-08-14T16:21:39.520Z,97.18
2022-08-14T16:24:06.567Z,96.85
2022-08-14T16:26:40.104Z,97.71
2022-08-14T16:29:15.509Z,96.87
2022-08-14T16:31:43.777Z,96.48
2022-08-14T16:34:44.132Z,96.52
2022-08-14T16:36:59.111Z,95.13
2022-08-14T16:39:25.778Z,95.18
2022-08-14T16:41:58.858Z,94.62
2022-08-14T16:44:41.096Z,93.74
2022-08-14T16:47:13.603Z,93.37
2022-08-14T16:50:04.295Z,93.02
2022-08-14T16:52:54.619Z,92.77
2022-08-14T16:55:17.754Z,91.98
2022-08-14T16:57:58.490Z,92.06
2022-08-14T17:00:44.021Z,92.24
2022-08-14T17:03:12.696Z,92.12
2022-08-14T17:05:43.106Z,92.35
2022-08-14T17:08:41.757Z,92.76
2022-08-14T17:11:11.105Z,93.08
2022-08-14T17:13:58.868Z,95.16
2022-08-14T17:16:31.609Z,96.05
2022-08-14T17:19:01.773Z,95.78
2022-08-14T17:21:41.593Z,94.32
2022-08-14T17:24:56.789Z,93.65
2022-08-14T17:27:03.871Z,92.82
2022-08-14T17:29:33.778Z,92.04
2022-08-14T17:32:28.041Z,92.22
2022-08-14T17:34:57.697Z,91.25
2022-08-14T17:37:28.922Z,91.00
2022-08-14T17:40:16.824Z,90.86
2022-08-14T17:42:51.829Z,91.26
2022-08-14T17:45:41.685Z,92.44
2022-08-14T17:49:14.088Z,93.26
2022-08-14T17:51:23.697Z,94.53
2022-08-14T17:54:02.322Z,94.03
2022-08-14T17:56:33.170Z,95.00
2022-08-14T17:59:05.566Z,93.86
2022-08-14T18:01:37.344Z,94.46
2022-08-14T18:04:25.366Z,93.38
2022-08-14T18:06:57.803Z,93.14
2022-08-14T18:09:40.389Z,93.29
2022-08-14T18:12:31.833Z,92.80
2022-08-14T18:15:06.700Z,92.52
2022-08-14T18:17:44.959Z,92.63
2022-08-14T18:21:40.263Z,92.55
2022-08-14T18:23:07.837Z,92.53
2022-08-14T18:25:47.202Z,92.34
2022-08-14T18:28:48.140Z,92.20
2022-08-14T18:31:22.771Z,92.11
2022-08-14T18:34:32.349Z,92.10
2022-08-14T18:37:11.059Z,92.48
2022-08-14T18:40:01.676Z,92.22
2022-08-14T18:42:34.881Z,92.07
2022-08-14T18:45:01.952Z,92.09
2022-08-14T18:48:06.285Z,92.24
2022-08-14T18:50:27.005Z,92.29
2022-08-14T18:53:05.661Z,92.30
2022-08-14T18:55:33.482Z,92.65
2022-08-14T18:58:27.578Z,92.58
2022-08-14T19:00:58.827Z,92.74
2022-08-14T19:03:36.492Z,92.66
2022-08-14T19:06:06.366Z,92.42
2022-08-14T19:08:43.685Z,92.79
2022-08-14T19:11:34.321Z,92.48
2022-08-14T19:14:05.005Z,92.33
2022-08-14T19:16:48.264Z,92.18
2022-08-14T19:19:20.475Z,92.16
2022-08-14T19:21:55.849Z,92.08
2022-08-14T19:24:44.206Z,92.51
2022-08-14T19:27:24.497Z,92.79
2022-08-14T19:30:20.326Z,92.74
2022-08-14T19:32:51.003Z,92.74
2022-08-14T19:35:19.712Z,93.16
2022-08-14T19:37:48.786Z,92.88
2022-08-14T19:40:37.744Z,92.60
2022-08-14T19:43:09.030Z,92.45
2022-08-14T19:45:38.057Z,92.29
2022-08-14T19:48:12.711Z,92.90
2022-08-14T19:50:41.488Z,92.65
2022-08-14T19:53:17.497Z,93.04
2022-08-14T19:55:56.757Z,93.38
2022-08-14T19:58:28.146Z,92.84
2022-08-14T20:00:57.285Z,93.55
2022-08-14T20:03:24.987Z,94.13
2022-08-14T20:06:05.552Z,93.48
2022-08-14T20:10:59.134Z,93.27
2022-08-14T20:12:00.947Z,94.17
2022-08-14T20:14:20.927Z,93.31
2022-08-14T20:16:57.729Z,93.09
2022-08-14T20:19:32.074Z,93.70
2022-08-14T20:22:35.789Z,93.52
2022-08-14T20:24:50.075Z,94.08
2022-08-14T20:27:39.612Z,94.86
2022-08-14T20:30:35.143Z,96.20
2022-08-14T20:33:07.917Z,97.52
2022-08-14T20:35:44.437Z,100.00
2022-08-14T20:38:30.648Z,100.00
2022-08-14T20:41:05.764Z,98.64
2022-08-14T20:43:54.845Z,97.32
2022-08-14T20:46:31.684Z,96.75
2022-08-14T20:49:19.121Z,95.72
2022-08-14T20:51:59.291Z,95.02
2022-08-14T20:54:34.654Z,94.17
2022-08-14T20:57:08.428Z,93.78
2022-08-14T20:59:53.714Z,93.35
2022-08-14T21:02:50.228Z,93.29
2022-08-14T21:05:20.581Z,93.33
2022-08-14T21:07:51.014Z,93.13
2022-08-14T21:10:35.848Z,93.02
2022-08-14T21:14:08.730Z,93.28
2022-08-14T21:16:03.695Z,93.36
2022-08-14T21:18:33.575Z,93.03
2022-08-14T21:21:07.807Z,92.45
2022-08-14T21:23:55.162Z,94.71
2022-08-14T21:26:50.521Z,94.91
2022-08-14T21:29:11.476Z,93.58
2022-08-14T21:31:38.969Z,93.16
2022-08-14T21:34:27.310Z,92.89
2022-08-14T21:36:54.625Z,93.73
2022-08-14T21:39:24.005Z,93.36
2022-08-14T21:41:58.842Z,93.28
2022-08-14T21:44:43.274Z,93.29
2022-08-14T21:47:12.404Z,94.86
2022-08-14T21:49:40.238Z,93.49
2022-08-14T21:52:50.281Z,94.02
2022-08-14T21:55:09.649Z,96.41
2022-08-14T21:58:43.559Z,94.84
2022-08-14T22:00:36.269Z,92.84
2022-08-14T22:03:10.814Z,92.89
2022-08-14T22:05:41.726Z,92.39
2022-08-14T22:08:13.843Z,92.15
2022-08-14T22:10:46.455Z,91.86
2022-08-14T22:13:20.199Z,92.61
2022-08-14T22:15:50.244Z,93.04
2022-08-14T22:18:21.163Z,92.48
2022-08-14T22:20:53.629Z,92.02
2022-08-14T22:23:20.869Z,92.04
2022-08-14T22:25:47.637Z,92.94
2022-08-14T22:28:20.458Z,95.39
2022-08-14T22:30:47.908Z,96.73
2022-08-14T22:33:31.306Z,95.22
2022-08-14T22:35:59.255Z,93.71
2022-08-14T22:38:35.503Z,92.28
2022-08-14T22:41:25.093Z,91.80
2022-08-14T22:43:56.576Z,92.84
2022-08-14T22:46:27.071Z,95.75
2022-08-14T22:48:54.550Z,97.04
2022-08-14T22:51:27.504Z,95.60
2022-08-14T22:53:56.250Z,93.31
2022-08-14T22:56:29.230Z,92.39
2022-08-14T22:58:58.669Z,95.29
2022-08-14T23:01:56.398Z,93.32
2022-08-14T23:04:35.841Z,92.24
2022-08-14T23:07:21.998Z,92.46
2022-08-14T23:10:32.190Z,92.64
2022-08-14T23:12:54.410Z,92.52
2022-08-14T23:15:23.285Z,92.71
2022-08-14T23:17:50.146Z,92.57
2022-08-14T23:20:21.551Z,92.66
2022-08-14T23:22:52.579Z,93.06
2022-08-14T23:25:57.140Z,95.15
2022-08-14T23:28:34.556Z,96.93
2022-08-14T23:31:05.866Z,96.49
2022-08-14T23:33:35.441Z,94.45
2022-08-14T23:36:32.400Z,92.79
2022-08-14T23:38:52.672Z,92.06
2022-08-14T23:41:21.006Z,91.96
2022-08-14T23:43:50.562Z,91.71
2022-08-14T23:46:19.605Z,92.05
2022-08-14T23:48:47.030Z,94.37
2022-08-14T23:51:16.353Z,94.10
2022-08-14T23:53:48.020Z,92.51
2022-08-14T23:56:32.373Z,91.10
2022-08-14T23:59:01.321Z,90.67
